createdAt,value
2023-04-16T00:00:39.949Z,79.09
2023-04-16T00:03:33.663Z,79.42
2023-04-16T00:06:20.751Z,79.24
2023-04-16T00:09:07.436Z,79.23
2023-04-16T00:11:54.141Z,79.50
2023-04-16T00:14:40.666Z,79.34
2023-04-16T00:17:27.505Z,79.05
2023-04-16T00:20:13.877Z,79.56
2023-04-16T00:23:00.690Z,79.57
2023-04-16T00:25:47.596Z,79.53
2023-04-16T00:28:34.504Z,79.74
2023-04-16T00:31:32.928Z,79.85
2023-04-16T00:34:19.473Z,79.59
2023-04-16T00:37:06.100Z,79.60
2023-04-16T00:39:52.595Z,79.70
2023-04-16T00:42:38.929Z,79.69
2023-04-16T00:45:25.223Z,79.91
2023-04-16T00:48:11.551Z,79.84
2023-04-16T00:50:59.430Z,79.87
2023-04-16T00:53:46.627Z,79.53
2023-04-16T00:56:35.697Z,79.60
2023-04-16T00:59:22.934Z,79.89
2023-04-16T01:02:09.564Z,79.70
2023-04-16T01:04:56.415Z,79.99
2023-04-16T01:07:43.077Z,79.55
2023-04-16T01:10:29.448Z,79.71
2023-04-16T01:13:16.248Z,79.86
2023-04-16T01:16:03.171Z,79.93
2023-04-16T01:18:49.548Z,79.78
2023-04-16T01:21:36.267Z,79.78
2023-04-16T01:24:23.247Z,79.78
2023-04-16T01:27:10.016Z,79.86
2023-04-16T01:29:56.421Z,80.13
2023-04-16T01:32:47.984Z,79.89
2023-04-16T01:35:34.453Z,79.99
2023-04-16T01:38:21.009Z,80.10
2023-04-16T01:41:07.844Z,80.19
2023-04-16T01:43:55.048Z,79.79
2023-04-16T01:46:45.195Z,79.98
2023-04-16T01:49:32.412Z,80.10
2023-04-16T01:52:19.384Z,79.79
2023-04-16T01:55:07.282Z,80.07
2023-04-16T01:57:53.917Z,80.22
2023-04-16T02:00:42.057Z,80.04
2023-04-16T02:03:28.860Z,80.05
2023-04-16T02:06:15.539Z,79.97
2023-04-16T02:09:02.205Z,80.11
2023-04-16T02:11:48.892Z,79.90
2023-04-16T02:14:35.394Z,79.85
2023-04-16T02:17:21.757Z,79.86
2023-04-16T02:20:11.336Z,80.25
2023-04-16T02:23:02.559Z,80.03
2023-04-16T02:25:49.513Z,80.03
2023-04-16T02:28:35.954Z,80.22
2023-04-16T02:31:23.468Z,80.14
2023-04-16T02:34:10.359Z,80.27
2023-04-16T02:36:58.333Z,79.89
2023-04-16T02:39:45.116Z,80.20
2023-04-16T02:42:33.598Z,80.27
2023-04-16T02:45:20.989Z,79.89
2023-04-16T02:48:09.048Z,80.22
2023-04-16T02:50:55.842Z,79.87
2023-04-16T02:53:46.002Z,80.37
2023-04-16T02:56:32.306Z,80.42
2023-04-16T02:59:18.766Z,80.25
2023-04-16T03:02:05.403Z,80.19
2023-04-16T03:04:52.124Z,80.45
2023-04-16T03:07:39.350Z,80.20
2023-04-16T03:10:25.638Z,80.19
2023-04-16T03:13:12.218Z,80.25
2023-04-16T03:15:58.881Z,80.33
2023-04-16T03:18:45.367Z,80.51
2023-04-16T03:21:31.890Z,80.30
2023-04-16T03:24:18.733Z,80.24
2023-04-16T03:27:08.099Z,80.19
2023-04-16T03:29:54.871Z,80.33
2023-04-16T03:32:42.622Z,80.36
2023-04-16T03:35:29.948Z,80.27
2023-04-16T03:38:16.646Z,80.45
2023-04-16T03:41:03.323Z,80.42
2023-04-16T03:43:50.929Z,80.44
2023-04-16T03:46:37.719Z,80.42
2023-04-16T03:49:24.218Z,80.52
2023-04-16T03:52:11.574Z,80.58
2023-04-16T03:54:58.065Z,80.38
2023-04-16T03:57:48.820Z,80.64
2023-04-16T04:00:36.205Z,80.56
2023-04-16T04:03:29.439Z,80.75
2023-04-16T04:06:16.515Z,80.88
2023-04-16T04:09:03.143Z,80.85
2023-04-16T04:11:50.854Z,80.78
2023-04-16T04:14:40.248Z,80.84
2023-04-16T04:17:26.878Z,80.82
2023-04-16T04:20:13.658Z,80.69
2023-04-16T04:23:03.496Z,80.79
2023-04-16T04:25:50.514Z,80.93
2023-04-16T04:28:36.981Z,80.85
2023-04-16T04:31:24.129Z,80.99
2023-04-16T04:34:10.631Z,81.02
2023-04-16T04:36:56.804Z,80.78
2023-04-16T04:39:43.608Z,80.71
2023-04-16T04:42:31.794Z,80.90
2023-04-16T04:45:19.284Z,80.73
2023-04-16T04:48:06.353Z,80.80
2023-04-16T04:50:53.965Z,80.78
2023-04-16T04:53:40.478Z,80.60
2023-04-16T04:56:27.160Z,80.41
2023-04-16T04:59:14.641Z,80.44
2023-04-16T05:02:03.419Z,80.40
2023-04-16T05:04:50.072Z,80.31
2023-04-16T05:07:36.961Z,80.21
2023-04-16T05:10:23.654Z,80.26
2023-04-16T05:13:10.039Z,79.95
2023-04-16T05:15:56.631Z,80.25
2023-04-16T05:18:42.951Z,80.09
2023-04-16T05:21:29.398Z,80.31
2023-04-16T05:24:15.793Z,80.03
2023-04-16T05:27:02.519Z,79.97
2023-04-16T05:29:49.072Z,79.89
2023-04-16T05:32:35.943Z,79.60
2023-04-16T05:35:22.791Z,79.65
2023-04-16T05:38:08.983Z,79.67
2023-04-16T05:40:56.234Z,79.48
2023-04-16T05:43:42.727Z,79.35
2023-04-16T05:46:29.264Z,79.39
2023-04-16T05:49:18.728Z,79.66
2023-04-16T05:52:05.739Z,79.40
2023-04-16T05:54:51.980Z,79.28
2023-04-16T05:57:38.407Z,79.33
2023-04-16T06:00:25.453Z,79.17
2023-04-16T06:03:11.931Z,79.20
2023-04-16T06:05:58.665Z,79.32
2023-04-16T06:08:45.505Z,79.09
2023-04-16T06:11:33.251Z,78.91
2023-04-16T06:14:21.249Z,78.58
2023-04-16T06:17:07.765Z,78.82
2023-04-16T06:19:54.264Z,78.69
2023-04-16T06:22:41.511Z,78.59
2023-04-16T06:25:28.160Z,78.37
2023-04-16T06:28:14.690Z,78.69
2023-04-16T06:31:01.199Z,78.40
2023-04-16T06:33:47.586Z,78.31
2023-04-16T06:36:34.040Z,77.98
2023-04-16T06:39:21.949Z,77.85
2023-04-16T06:42:08.459Z,77.83
2023-04-16T06:44:54.998Z,78.04
2023-04-16T06:47:41.378Z,78.29
2023-04-16T06:50:28.655Z,78.40
2023-04-16T06:53:15.860Z,78.71
2023-04-16T06:56:02.007Z,78.30
2023-04-16T06:58:48.403Z,78.37
2023-04-16T07:01:35.374Z,78.11
2023-04-16T07:04:21.961Z,78.01
2023-04-16T07:07:09.021Z,77.70
2023-04-16T07:09:55.519Z,78.01
2023-04-16T07:12:41.786Z,78.16
2023-04-16T07:15:28.908Z,78.02
2023-04-16T07:18:15.927Z,78.24
2023-04-16T07:21:02.371Z,78.22
2023-04-16T07:23:48.714Z,78.18
2023-04-16T07:26:35.459Z,78.31
2023-04-16T07:29:22.159Z,78.14
2023-04-16T07:32:08.829Z,78.51
2023-04-16T07:34:56.556Z,78.39
2023-04-16T07:37:42.906Z,78.65
2023-04-16T07:40:30.289Z,78.58
2023-04-16T07:43:16.978Z,78.30
2023-04-16T07:46:03.713Z,78.38
2023-04-16T07:48:50.529Z,78.48
2023-04-16T07:51:36.842Z,78.39
2023-04-16T07:54:23.518Z,78.41
2023-04-16T07:57:11.602Z,78.37
2023-04-16T07:59:58.407Z,77.93
2023-04-16T08:02:45.228Z,77.97
2023-04-16T08:05:31.708Z,78.03
2023-04-16T08:08:18.291Z,77.78
2023-04-16T08:11:04.840Z,77.99
2023-04-16T08:13:51.059Z,77.86
2023-04-16T08:16:38.848Z,77.60
2023-04-16T08:19:25.324Z,77.82
2023-04-16T08:22:12.926Z,77.69
2023-04-16T08:24:59.571Z,77.72
2023-04-16T08:27:46.095Z,77.40
2023-04-16T08:30:32.731Z,77.21
2023-04-16T08:33:19.240Z,77.26
2023-04-16T08:36:06.022Z,76.88
2023-04-16T08:38:52.832Z,76.90
2023-04-16T08:41:46.268Z,76.69
2023-04-16T08:44:35.355Z,76.53
2023-04-16T08:47:25.192Z,76.63
2023-04-16T08:50:15.263Z,76.24
2023-04-16T08:53:08.410Z,76.07
2023-04-16T08:55:59.792Z,75.73
2023-04-16T08:58:48.829Z,76.12
2023-04-16T09:01:36.115Z,75.76
2023-04-16T09:04:24.883Z,75.74
2023-04-16T09:07:12.143Z,75.79
2023-04-16T09:10:00.451Z,76.04
2023-04-16T09:12:46.979Z,76.06
2023-04-16T09:15:35.473Z,75.94
2023-04-16T09:18:21.812Z,75.87
2023-04-16T09:21:13.821Z,75.85
2023-04-16T09:24:01.653Z,75.83
2023-04-16T09:26:52.742Z,75.73
2023-04-16T09:29:41.724Z,75.65
2023-04-16T09:32:29.023Z,75.26
2023-04-16T09:35:18.913Z,75.10
2023-04-16T09:38:05.806Z,74.93
2023-04-16T09:41:08.827Z,74.94
2023-04-16T09:44:05.061Z,75.04
2023-04-16T09:46:51.827Z,75.30
2023-04-16T09:49:44.603Z,75.13
2023-04-16T09:52:31.445Z,75.02
2023-04-16T09:55:23.805Z,75.02
2023-04-16T09:58:10.596Z,74.85
2023-04-16T10:01:02.347Z,74.51
2023-04-16T10:03:51.071Z,74.41
2023-04-16T10:06:38.233Z,74.62
2023-04-16T10:09:24.836Z,74.42
2023-04-16T10:12:12.925Z,74.40
2023-04-16T10:14:59.328Z,74.40
2023-04-16T10:17:46.892Z,74.21
2023-04-16T10:20:34.212Z,73.76
2023-04-16T10:23:22.072Z,73.43
2023-04-16T10:26:09.054Z,73.24
2023-04-16T10:28:56.400Z,73.09
2023-04-16T10:31:43.342Z,72.76
2023-04-16T10:34:31.539Z,73.49
2023-04-16T10:37:18.775Z,73.66
2023-04-16T10:40:23.547Z,73.42
2023-04-16T10:43:18.041Z,73.59
2023-04-16T10:46:26.599Z,73.81
2023-04-16T10:49:19.311Z,73.34
2023-04-16T10:52:13.793Z,73.41
2023-04-16T10:55:01.273Z,73.16
2023-04-16T10:57:50.031Z,72.91
2023-04-16T11:00:50.511Z,72.82
2023-04-16T11:03:37.122Z,72.50
2023-04-16T11:06:26.585Z,72.73
2023-04-16T11:09:46.564Z,72.73
2023-04-16T11:12:38.216Z,72.72
2023-04-16T11:15:30.942Z,72.61
2023-04-16T11:18:20.588Z,72.55
2023-04-16T11:21:12.398Z,72.04
2023-04-16T11:23:58.994Z,72.13
2023-04-16T11:26:45.462Z,71.64
2023-04-16T11:29:31.836Z,71.80
2023-04-16T11:32:22.826Z,71.54
2023-04-16T11:35:17.964Z,71.02
2023-04-16T11:38:07.191Z,71.03
2023-04-16T11:40:54.326Z,70.73
2023-04-16T11:43:41.038Z,70.02
2023-04-16T11:46:40.605Z,69.98
2023-04-16T11:49:30.718Z,69.92
2023-04-16T11:52:27.322Z,70.07
2023-04-16T11:55:14.158Z,70.56
2023-04-16T11:58:12.294Z,70.79
2023-04-16T12:01:00.497Z,70.95
2023-04-16T12:03:49.657Z,71.18
2023-04-16T12:06:36.701Z,71.45
2023-04-16T12:09:25.101Z,71.52
2023-04-16T12:12:31.587Z,71.64
2023-04-16T12:15:18.457Z,71.89
2023-04-16T12:18:08.446Z,71.90
2023-04-16T12:20:54.837Z,71.94
2023-04-16T12:23:42.674Z,72.01
2023-04-16T12:26:40.140Z,72.37
2023-04-16T12:29:28.076Z,72.83
2023-04-16T12:32:23.422Z,72.93
2023-04-16T12:35:13.296Z,72.99
2023-04-16T12:38:00.544Z,72.91
2023-04-16T12:40:47.361Z,72.83
2023-04-16T12:43:33.967Z,72.95
2023-04-16T12:46:20.334Z,73.02
2023-04-16T12:49:08.899Z,73.00
2023-04-16T12:51:55.956Z,73.35
2023-04-16T12:54:42.497Z,72.82
2023-04-16T12:57:29.054Z,72.57
2023-04-16T13:00:16.394Z,72.61
2023-04-16T13:03:03.054Z,72.36
2023-04-16T13:05:49.806Z,72.36
2023-04-16T13:08:37.445Z,72.56
2023-04-16T13:11:24.210Z,72.28
2023-04-16T13:14:11.065Z,71.88
2023-04-16T13:16:57.355Z,71.36
2023-04-16T13:19:43.733Z,71.44
2023-04-16T13:22:30.733Z,71.77
2023-04-16T13:25:17.495Z,72.00
2023-04-16T13:28:04.330Z,72.15
2023-04-16T13:30:50.982Z,71.59
2023-04-16T13:33:38.302Z,71.96
2023-04-16T13:36:27.426Z,72.10
2023-04-16T13:39:15.724Z,72.35
2023-04-16T13:42:02.722Z,72.26
2023-04-16T13:44:53.175Z,72.32
2023-04-16T13:47:43.449Z,72.47
2023-04-16T13:50:30.419Z,72.45
2023-04-16T13:53:16.900Z,72.36
2023-04-16T13:56:07.317Z,72.55
2023-04-16T13:58:53.741Z,72.64
2023-04-16T14:01:40.328Z,72.37
2023-04-16T14:04:26.550Z,72.23
2023-04-16T14:07:12.987Z,72.23
2023-04-16T14:09:59.607Z,72.19
2023-04-16T14:12:46.367Z,72.55
2023-04-16T14:15:33.188Z,72.61
2023-04-16T14:18:19.510Z,72.38
2023-04-16T14:21:06.022Z,72.60
2023-04-16T14:23:52.337Z,72.31
2023-04-16T14:26:38.791Z,72.17
2023-04-16T14:29:25.843Z,72.17
2023-04-16T14:32:12.570Z,72.01
2023-04-16T14:34:59.126Z,72.43
2023-04-16T14:37:46.689Z,72.00
2023-04-16T14:40:34.282Z,71.95
2023-04-16T14:43:20.750Z,71.69
2023-04-16T14:46:07.254Z,71.85
2023-04-16T14:48:53.704Z,71.64
2023-04-16T14:51:41.336Z,71.52
2023-04-16T14:54:28.374Z,71.49
2023-04-16T14:57:14.668Z,71.95
2023-04-16T15:00:01.294Z,71.84
2023-04-16T15:02:48.391Z,71.87
2023-04-16T15:05:35.810Z,71.71
2023-04-16T15:08:24.013Z,71.68
2023-04-16T15:11:11.024Z,71.82
2023-04-16T15:13:57.540Z,72.15
2023-04-16T15:16:46.157Z,71.96
2023-04-16T15:19:32.916Z,71.71
2023-04-16T15:22:19.633Z,71.97
2023-04-16T15:25:06.762Z,72.00
2023-04-16T15:27:53.239Z,71.94
2023-04-16T15:30:41.432Z,72.12
2023-04-16T15:33:28.327Z,72.22
2023-04-16T15:36:14.833Z,72.39
2023-04-16T15:39:01.545Z,72.22
2023-04-16T15:42:00.626Z,72.25
2023-04-16T15:44:48.112Z,71.80
2023-04-16T15:47:36.388Z,71.93
2023-04-16T15:50:23.191Z,72.21
2023-04-16T15:53:09.816Z,72.22
2023-04-16T15:55:56.598Z,72.31
2023-04-16T15:58:43.078Z,72.42
2023-04-16T16:01:29.896Z,72.47
2023-04-16T16:04:26.744Z,72.41
2023-04-16T16:07:15.520Z,72.48
2023-04-16T16:10:02.590Z,72.48
2023-04-16T16:12:49.483Z,72.25
2023-04-16T16:15:36.329Z,72.76
2023-04-16T16:18:22.752Z,72.92
2023-04-16T16:21:09.120Z,72.87
2023-04-16T16:23:55.511Z,72.89
2023-04-16T16:26:42.403Z,72.55
2023-04-16T16:29:28.608Z,72.60
2023-04-16T16:32:16.518Z,72.48
2023-04-16T16:35:03.014Z,72.89
2023-04-16T16:37:55.369Z,72.39
2023-04-16T16:40:42.008Z,72.68
2023-04-16T16:43:28.331Z,73.03
2023-04-16T16:46:14.957Z,73.18
2023-04-16T16:49:01.646Z,73.24
2023-04-16T16:51:48.765Z,73.11
2023-04-16T16:54:35.472Z,73.14
2023-04-16T16:57:21.849Z,73.47
2023-04-16T17:00:12.260Z,73.01
2023-04-16T17:02:58.695Z,73.14
2023-04-16T17:05:45.359Z,73.60
2023-04-16T17:08:31.729Z,73.76
2023-04-16T17:11:18.284Z,73.63
2023-04-16T17:14:05.007Z,73.55
2023-04-16T17:16:51.713Z,73.62
2023-04-16T17:19:38.469Z,73.26
2023-04-16T17:22:25.076Z,73.64
2023-04-16T17:25:11.965Z,73.78
2023-04-16T17:27:58.755Z,73.81
2023-04-16T17:30:46.237Z,73.87
2023-04-16T17:33:32.866Z,73.74
2023-04-16T17:36:21.365Z,73.75
2023-04-16T17:39:07.997Z,73.52
2023-04-16T17:41:58.375Z,73.81
2023-04-16T17:44:45.320Z,74.18
2023-04-16T17:47:31.621Z,74.45
2023-04-16T17:50:18.764Z,73.94
2023-04-16T17:53:05.423Z,74.09
2023-04-16T17:55:55.190Z,73.82
2023-04-16T17:58:43.334Z,74.04
2023-04-16T18:01:30.312Z,74.14
2023-04-16T18:04:17.421Z,74.33
2023-04-16T18:07:04.303Z,74.10
2023-04-16T18:09:51.109Z,74.23
2023-04-16T18:12:37.658Z,74.29
2023-04-16T18:15:24.713Z,74.19
2023-04-16T18:18:11.196Z,74.29
2023-04-16T18:20:57.621Z,74.38
2023-04-16T18:23:44.991Z,74.28
2023-04-16T18:26:33.724Z,74.47
2023-04-16T18:29:25.008Z,74.41
2023-04-16T18:32:12.477Z,74.60
2023-04-16T18:34:59.510Z,74.47
2023-04-16T18:37:46.798Z,74.48
2023-04-16T18:40:37.334Z,74.36
2023-04-16T18:43:24.040Z,74.59
2023-04-16T18:46:10.705Z,74.48
2023-04-16T18:48:59.090Z,74.28
2023-04-16T18:51:45.760Z,74.28
2023-04-16T18:54:32.208Z,74.10
2023-04-16T18:57:18.559Z,74.42
2023-04-16T19:00:12.674Z,74.25
2023-04-16T19:02:59.413Z,74.44
2023-04-16T19:05:45.677Z,74.56
2023-04-16T19:08:32.156Z,74.55
2023-04-16T19:11:18.729Z,74.64
2023-04-16T19:14:05.956Z,74.52
2023-04-16T19:16:52.414Z,74.45
2023-04-16T19:19:38.943Z,74.31
2023-04-16T19:22:25.677Z,74.53
2023-04-16T19:25:12.005Z,74.40
2023-04-16T19:27:58.915Z,74.37
2023-04-16T19:30:46.768Z,74.37
2023-04-16T19:33:32.980Z,74.10
2023-04-16T19:36:19.077Z,74.06
2023-04-16T19:39:06.413Z,74.33
2023-04-16T19:41:52.588Z,74.41
2023-04-16T19:44:39.385Z,74.41
2023-04-16T19:47:25.778Z,74.08
2023-04-16T19:50:12.262Z,73.84
2023-04-16T19:52:58.696Z,73.81
2023-04-16T19:55:46.910Z,73.98
2023-04-16T19:58:33.791Z,73.87
2023-04-16T20:01:20.075Z,73.70
2023-04-16T20:04:07.310Z,73.40
2023-04-16T20:06:53.863Z,73.52
2023-04-16T20:09:40.538Z,73.70
2023-04-16T20:12:27.470Z,73.96
2023-04-16T20:15:14.007Z,73.86
2023-04-16T20:18:00.370Z,73.91
2023-04-16T20:20:47.486Z,73.72
2023-04-16T20:23:33.898Z,73.45
2023-04-16T20:26:20.586Z,73.38
2023-04-16T20:29:07.357Z,73.56
2023-04-16T20:31:53.558Z,73.69
2023-04-16T20:34:40.596Z,73.56
2023-04-16T20:37:29.118Z,73.63
2023-04-16T20:40:16.451Z,73.71
2023-04-16T20:43:03.065Z,73.50
2023-04-16T20:45:50.178Z,73.58
2023-04-16T20:48:38.546Z,73.60
2023-04-16T20:51:24.596Z,73.31
2023-04-16T20:54:11.219Z,73.31
2023-04-16T20:56:58.190Z,73.48
2023-04-16T20:59:44.727Z,73.20
2023-04-16T21:02:31.592Z,73.20
2023-04-16T21:05:21.346Z,73.28
2023-04-16T21:08:07.852Z,72.81
2023-04-16T21:10:54.448Z,72.98
2023-04-16T21:13:41.058Z,72.96
2023-04-16T21:16:27.586Z,72.81
2023-04-16T21:19:14.080Z,72.79
2023-04-16T21:22:02.709Z,72.61
2023-04-16T21:24:49.280Z,72.46
2023-04-16T21:27:35.783Z,72.69
2023-04-16T21:30:22.738Z,72.61
2023-04-16T21:33:09.528Z,72.69
2023-04-16T21:35:55.836Z,72.58
2023-04-16T21:38:42.649Z,72.74
2023-04-16T21:41:29.131Z,72.52
2023-04-16T21:44:15.522Z,72.66
2023-04-16T21:47:02.330Z,72.74
2023-04-16T21:49:49.109Z,72.71
2023-04-16T21:52:40.333Z,72.64
2023-04-16T21:55:27.202Z,72.80
2023-04-16T21:58:13.695Z,72.83
2023-04-16T22:01:00.245Z,72.70
2023-04-16T22:03:50.842Z,72.96
2023-04-16T22:06:37.738Z,72.97
2023-04-16T22:09:27.169Z,72.84
2023-04-16T22:12:13.944Z,72.87
2023-04-16T22:15:02.711Z,72.81
2023-04-16T22:17:50.137Z,72.87
2023-04-16T22:20:39.233Z,73.08
2023-04-16T22:23:26.402Z,72.93
2023-04-16T22:26:13.305Z,72.90
2023-04-16T22:28:59.781Z,73.07
2023-04-16T22:31:46.978Z,72.93
2023-04-16T22:34:33.367Z,72.90
2023-04-16T22:37:20.020Z,73.11
2023-04-16T22:40:11.430Z,73.19
2023-04-16T22:42:57.978Z,73.28
2023-04-16T22:45:46.157Z,73.25
2023-04-16T22:48:36.169Z,73.43
2023-04-16T22:51:24.566Z,73.18
2023-04-16T22:54:13.636Z,73.38
2023-04-16T22:57:01.037Z,73.32
2023-04-16T22:59:47.416Z,73.32
2023-04-16T23:02:34.019Z,73.21
2023-04-16T23:05:20.789Z,73.38
2023-04-16T23:08:07.524Z,73.47
2023-04-16T23:10:53.804Z,73.32
2023-04-16T23:13:40.287Z,73.58
2023-04-16T23:16:27.929Z,73.28
2023-04-16T23:19:15.687Z,73.34
2023-04-16T23:22:02.101Z,73.37
2023-04-16T23:24:48.523Z,73.52
2023-04-16T23:27:36.550Z,73.59
2023-04-16T23:30:23.061Z,73.71
2023-04-16T23:33:09.403Z,73.74
2023-04-16T23:35:56.022Z,73.61
2023-04-16T23:38:42.619Z,73.88
2023-04-16T23:41:29.254Z,73.83
2023-04-16T23:44:16.480Z,73.87
2023-04-16T23:47:02.963Z,73.97
2023-04-16T23:49:49.489Z,73.84
2023-04-16T23:52:36.855Z,73.99
2023-04-16T23:55:23.845Z,74.11
2023-04-16T23:58:10.345Z,74.13
